Time;durP1;ratioP1;P1;durP2;ratioP2;P2;SDS_P1;SDS_P2;PMS_P1;PMS_P2;Temp;Humidity;BMP_temperature;BMP_pressure;BME280_temperature;BME280_humidity;BME280_pressure;Samples;Min_cycle;Max_cycle;Signal;HPM_P1;HPM_P2
2022/10/30 00:01:42;;;;;;;24.02;11.45;;;;;;;;;;5094165;28;20058;-79
2022/10/30 00:04:08;;;;;;;24.55;11.50;;;;;;;;;;5124287;27;20596;-79
2022/10/30 00:06:34;;;;;;;24.92;12.10;;;;;;;;;;5115656;27;20035;-79
2022/10/30 00:09:00;;;;;;;27.27;11.75;;;;;;;;;;5115436;27;20084;-79
2022/10/30 00:11:28;;;;;;;24.48;11.50;;;;;;;;;;5102241;28;20040;-79
2022/10/30 00:13:55;;;;;;;20.88;11.52;;;;;;;;;;5104047;28;20445;-80
2022/10/30 00:16:21;;;;;;;25.33;11.57;;;;;;;;;;5115405;27;20074;-80
2022/10/30 00:18:47;;;;;;;22.58;12.00;;;;;;;;;;5103026;28;20035;-79
2022/10/30 00:21:14;;;;;;;25.33;11.82;;;;;;;;;;5114950;28;20075;-80
2022/10/30 00:23:48;;;;;;;29.38;13.05;;;;;;;;;;5100165;28;20050;-80
2022/10/30 00:26:14;;;;;;;25.52;11.00;;;;;;;;;;5100840;28;20047;-80
2022/10/30 00:28:40;;;;;;;21.98;11.48;;;;;;;;;;5137975;27;20084;-80
2022/10/30 00:31:07;;;;;;;26.05;11.32;;;;;;;;;;5133157;28;20039;-80
2022/10/30 00:33:33;;;;;;;21.20;11.80;;;;;;;;;;5114690;28;20039;-79
2022/10/30 00:35:59;;;;;;;24.88;11.45;;;;;;;;;;5114693;28;20042;-77
2022/10/30 00:38:25;;;;;;;24.20;11.27;;;;;;;;;;5115021;28;20072;-77
2022/10/30 00:40:51;;;;;;;22.27;11.70;;;;;;;;;;5132335;27;20503;-77
2022/10/30 00:43:31;;;;;;;20.30;11.05;;;;;;;;;;5106144;27;20568;-77
2022/10/30 00:46:00;;;;;;;20.38;10.90;;;;;;;;;;5114612;28;20496;-77
2022/10/30 00:48:26;;;;;;;27.25;12.45;;;;;;;;;;5115698;27;20091;-77
2022/10/30 00:50:53;;;;;;;21.48;12.10;;;;;;;;;;5115298;28;20039;-77
2022/10/30 00:53:20;;;;;;;25.42;11.55;;;;;;;;;;5114787;28;20049;-78
2022/10/30 00:55:52;;;;;;;27.05;12.13;;;;;;;;;;5114094;28;20041;-79
2022/10/30 00:58:20;;;;;;;25.58;11.55;;;;;;;;;;5115013;28;20510;-79
2022/10/30 01:00:50;;;;;;;25.80;12.05;;;;;;;;;;5127157;28;20103;-79
2022/10/30 01:03:16;;;;;;;26.55;12.15;;;;;;;;;;5115061;28;20462;-79
2022/10/30 01:05:45;;;;;;;22.35;11.63;;;;;;;;;;5113941;28;20114;-69
2022/10/30 01:08:11;;;;;;;28.73;12.48;;;;;;;;;;5132522;28;20051;-69
2022/10/30 01:10:37;;;;;;;23.52;11.68;;;;;;;;;;5115661;28;20111;-69
2022/10/30 01:13:03;;;;;;;27.42;12.13;;;;;;;;;;5113951;28;20058;-79
2022/10/30 01:15:35;;;;;;;26.58;11.65;;;;;;;;;;5113758;28;20046;-79
2022/10/30 01:18:07;;;;;;;22.95;12.15;;;;;;;;;;5132696;28;20126;-79
2022/10/30 01:20:36;;;;;;;28.27;12.63;;;;;;;;;;5110408;28;20058;-79
2022/10/30 01:23:02;;;;;;;24.73;11.68;;;;;;;;;;5094006;28;20079;-69
2022/10/30 01:25:31;;;;;;;22.27;11.77;;;;;;;;;;5136124;27;20395;-69
2022/10/30 01:28:00;;;;;;;24.60;11.75;;;;;;;;;;5100332;27;20039;-69
2022/10/30 01:30:44;;;;;;;24.60;11.85;;;;;;;;;;5117685;27;20042;-69
2022/10/30 01:33:29;;;;;;;27.70;12.98;;;;;;;;;;5117867;27;20047;-79
2022/10/30 01:36:04;;;;;;;27.25;12.95;;;;;;;;;;5117706;27;20027;-80
2022/10/30 01:38:42;;;;;;;28.48;12.65;;;;;;;;;;5103324;27;20040;-79
2022/10/30 01:41:08;;;;;;;21.58;11.15;;;;;;;;;;5119825;27;21296;-79
2022/10/30 01:43:34;;;;;;;22.80;12.35;;;;;;;;;;5123060;27;20076;-69
2022/10/30 01:46:06;;;;;;;24.75;12.30;;;;;;;;;;5100234;27;20043;-69
2022/10/30 01:48:51;;;;;;;23.45;12.43;;;;;;;;;;5135861;27;20039;-69
2022/10/30 01:51:34;;;;;;;24.30;12.50;;;;;;;;;;5110912;27;20115;-69
2022/10/30 01:54:14;;;;;;;21.95;12.40;;;;;;;;;;5113751;27;20395;-69
2022/10/30 01:56:46;;;;;;;23.85;12.38;;;;;;;;;;5117112;27;20134;-69
2022/10/30 01:59:35;;;;;;;27.67;12.93;;;;;;;;;;5117178;27;20047;-69
2022/10/30 02:02:01;;;;;;;22.33;11.32;;;;;;;;;;5135746;27;20531;-69
2022/10/30 02:04:27;;;;;;;27.77;11.93;;;;;;;;;;5117191;27;20090;-79
2022/10/30 02:06:53;;;;;;;26.30;11.95;;;;;;;;;;5082784;27;20050;-79
2022/10/30 02:09:19;;;;;;;25.85;12.48;;;;;;;;;;5116899;27;20048;-79
2022/10/30 02:11:46;;;;;;;25.95;12.93;;;;;;;;;;5117324;27;20510;-79
2022/10/30 02:14:14;;;;;;;27.13;12.35;;;;;;;;;;5128727;27;20034;-69
2022/10/30 02:16:45;;;;;;;27.90;12.15;;;;;;;;;;5116748;27;20139;-69
2022/10/30 02:19:11;;;;;;;27.67;12.82;;;;;;;;;;5118248;27;20047;-69
2022/10/30 02:21:37;;;;;;;28.55;12.38;;;;;;;;;;5117041;27;20049;-69
2022/10/30 02:24:03;;;;;;;22.95;12.75;;;;;;;;;;5118037;27;20051;-69
2022/10/30 02:26:29;;;;;;;26.35;12.60;;;;;;;;;;5135264;27;20118;-69
2022/10/30 02:28:55;;;;;;;26.10;13.35;;;;;;;;;;5134748;27;20031;-79
2022/10/30 02:31:21;;;;;;;27.98;13.30;;;;;;;;;;5117088;27;20103;-69
2022/10/30 02:33:48;;;;;;;27.15;13.32;;;;;;;;;;5100499;27;20037;-69
2022/10/30 02:36:14;;;;;;;27.63;13.80;;;;;;;;;;5115405;27;20062;-79
2022/10/30 02:38:41;;;;;;;23.40;12.95;;;;;;;;;;5117064;27;20496;-80
2022/10/30 02:41:07;;;;;;;27.33;13.45;;;;;;;;;;5107850;28;20392;-80
2022/10/30 02:43:33;;;;;;;25.00;14.75;;;;;;;;;;5111567;27;20042;-69
2022/10/30 02:45:59;;;;;;;25.63;13.38;;;;;;;;;;5100442;27;20096;-69
2022/10/30 02:48:25;;;;;;;29.13;13.75;;;;;;;;;;5116343;27;20043;-69
2022/10/30 02:50:51;;;;;;;25.77;13.50;;;;;;;;;;5101992;27;20031;-69
2022/10/30 02:53:17;;;;;;;24.38;12.55;;;;;;;;;;5115639;27;20433;-79
2022/10/30 02:55:43;;;;;;;28.77;13.23;;;;;;;;;;5141351;27;20042;-79
2022/10/30 02:58:09;;;;;;;25.63;13.70;;;;;;;;;;5134182;27;20411;-80
2022/10/30 03:00:35;;;;;;;26.63;13.80;;;;;;;;;;5116318;27;20043;-79
2022/10/30 03:03:01;;;;;;;23.23;13.13;;;;;;;;;;5115648;27;20047;-79
2022/10/30 03:05:27;;;;;;;27.13;13.25;;;;;;;;;;5116896;27;20038;-79
2022/10/30 03:07:54;;;;;;;22.73;12.85;;;;;;;;;;5115908;27;20035;-69
2022/10/30 03:10:20;;;;;;;30.13;13.77;;;;;;;;;;5115765;27;20043;-79
2022/10/30 03:12:46;;;;;;;24.58;12.50;;;;;;;;;;5098543;27;20039;-79
2022/10/30 03:15:12;;;;;;;22.90;12.98;;;;;;;;;;5078421;28;20046;-80
2022/10/30 03:17:38;;;;;;;22.05;13.07;;;;;;;;;;5132216;27;20042;-79
2022/10/30 03:20:04;;;;;;;30.15;13.45;;;;;;;;;;5115646;27;20035;-69
2022/10/30 03:22:30;;;;;;;24.70;13.20;;;;;;;;;;5115385;27;20047;-79
2022/10/30 03:24:56;;;;;;;32.22;13.65;;;;;;;;;;5116293;27;20039;-79
2022/10/30 03:27:22;;;;;;;25.02;12.48;;;;;;;;;;5134726;27;20104;-79
2022/10/30 03:29:49;;;;;;;28.25;13.10;;;;;;;;;;5101469;28;20046;-79
2022/10/30 03:32:15;;;;;;;29.30;13.48;;;;;;;;;;5114461;27;20046;-79
2022/10/30 03:34:41;;;;;;;28.80;13.95;;;;;;;;;;5115486;27;20078;-79
2022/10/30 03:37:07;;;;;;;25.85;13.27;;;;;;;;;;5102500;27;20027;-69
2022/10/30 03:39:33;;;;;;;26.08;13.40;;;;;;;;;;5109123;27;20035;-79
2022/10/30 03:41:59;;;;;;;33.85;13.73;;;;;;;;;;5130771;27;20045;-79
2022/10/30 03:44:25;;;;;;;26.35;13.20;;;;;;;;;;5114766;27;20058;-69
2022/10/30 03:46:51;;;;;;;30.23;13.88;;;;;;;;;;5115078;27;20126;-79
2022/10/30 03:49:17;;;;;;;29.75;13.40;;;;;;;;;;5119176;27;20118;-79
2022/10/30 03:51:43;;;;;;;24.48;13.32;;;;;;;;;;5091290;27;20047;-69
2022/10/30 03:54:09;;;;;;;25.77;13.70;;;;;;;;;;5114535;27;20035;-69
2022/10/30 03:56:35;;;;;;;24.70;13.15;;;;;;;;;;5115219;27;20067;-79
2022/10/30 03:59:01;;;;;;;28.92;13.50;;;;;;;;;;5115664;27;20043;-69
2022/10/30 04:01:27;;;;;;;27.13;13.07;;;;;;;;;;5132308;27;20042;-79
2022/10/30 04:03:53;;;;;;;26.17;13.85;;;;;;;;;;5133124;27;20046;-80
2022/10/30 04:06:19;;;;;;;26.85;13.40;;;;;;;;;;5132161;27;20088;-79
2022/10/30 04:08:45;;;;;;;29.42;14.00;;;;;;;;;;5116093;27;20397;-80
2022/10/30 04:11:11;;;;;;;33.15;13.43;;;;;;;;;;5100242;28;20035;-79
2022/10/30 04:13:38;;;;;;;27.90;13.30;;;;;;;;;;5114803;27;20054;-80
2022/10/30 04:16:05;;;;;;;26.70;13.98;;;;;;;;;;5115170;28;20039;-79
2022/10/30 04:18:32;;;;;;;27.27;13.90;;;;;;;;;;5114951;28;20507;-79
2022/10/30 04:21:01;;;;;;;29.23;14.07;;;;;;;;;;5099752;28;20507;-79
2022/10/30 04:23:27;;;;;;;30.75;14.90;;;;;;;;;;5114671;28;20043;-79
2022/10/30 04:25:53;;;;;;;29.33;13.60;;;;;;;;;;5115257;28;20046;-79
2022/10/30 04:28:20;;;;;;;21.52;13.60;;;;;;;;;;5132475;28;20099;-79
2022/10/30 04:30:46;;;;;;;28.75;15.32;;;;;;;;;;5116099;28;20121;-79
2022/10/30 04:33:13;;;;;;;28.83;14.60;;;;;;;;;;5132975;27;20046;-79
2022/10/30 04:35:40;;;;;;;31.17;14.70;;;;;;;;;;5114742;28;20039;-79
2022/10/30 04:38:10;;;;;;;31.02;14.90;;;;;;;;;;5114788;28;20039;-79
2022/10/30 04:40:37;;;;;;;26.98;14.20;;;;;;;;;;5115352;28;20039;-79
2022/10/30 04:43:04;;;;;;;35.20;15.57;;;;;;;;;;5114942;28;20039;-79
2022/10/30 04:45:30;;;;;;;27.13;14.75;;;;;;;;;;5114040;28;20074;-79
2022/10/30 04:48:00;;;;;;;27.45;14.27;;;;;;;;;;5133293;28;20035;-79
2022/10/30 04:50:26;;;;;;;32.70;16.13;;;;;;;;;;5099359;28;20077;-79
2022/10/30 04:53:02;;;;;;;28.45;14.77;;;;;;;;;;5116719;28;20031;-79
2022/10/30 04:55:29;;;;;;;36.15;15.55;;;;;;;;;;5114549;28;20039;-79
2022/10/30 04:57:56;;;;;;;26.95;14.98;;;;;;;;;;5116338;28;20039;-79
2022/10/30 05:00:23;;;;;;;32.15;16.02;;;;;;;;;;5119127;27;20490;-79
2022/10/30 05:02:49;;;;;;;26.30;15.88;;;;;;;;;;5116732;27;20031;-78
2022/10/30 05:05:15;;;;;;;30.55;14.98;;;;;;;;;;5118676;27;20403;-79
2022/10/30 05:07:41;;;;;;;31.77;15.82;;;;;;;;;;5104017;27;20046;-79
2022/10/30 05:10:07;;;;;;;30.42;15.60;;;;;;;;;;5093706;27;20122;-69
2022/10/30 05:12:33;;;;;;;31.40;15.85;;;;;;;;;;5137092;27;20051;-70
2022/10/30 05:14:59;;;;;;;32.55;15.80;;;;;;;;;;5100820;27;20079;-69
2022/10/30 05:17:25;;;;;;;31.80;15.57;;;;;;;;;;5084066;27;20480;-69
2022/10/30 05:19:51;;;;;;;30.40;16.02;;;;;;;;;;5097497;28;20044;-69
2022/10/30 05:22:17;;;;;;;31.58;15.57;;;;;;;;;;5111599;27;20078;-69
2022/10/30 05:24:43;;;;;;;37.42;17.02;;;;;;;;;;5113374;27;20042;-69
2022/10/30 05:27:09;;;;;;;27.98;15.10;;;;;;;;;;5118278;27;20043;-69
2022/10/30 05:29:35;;;;;;;32.85;15.48;;;;;;;;;;5117029;27;20402;-69
2022/10/30 05:32:02;;;;;;;36.25;16.48;;;;;;;;;;5097438;28;20051;-69
2022/10/30 05:34:28;;;;;;;30.98;15.60;;;;;;;;;;5116264;27;20095;-68
2022/10/30 05:36:54;;;;;;;35.13;16.05;;;;;;;;;;5084000;27;20043;-69
2022/10/30 05:39:20;;;;;;;33.30;16.13;;;;;;;;;;5100614;27;20103;-69
2022/10/30 05:41:46;;;;;;;32.50;15.52;;;;;;;;;;5117165;27;20043;-69
2022/10/30 05:44:12;;;;;;;26.95;15.15;;;;;;;;;;5123590;27;20042;-69
2022/10/30 05:46:38;;;;;;;40.10;17.10;;;;;;;;;;5136665;27;20116;-69
2022/10/30 05:49:04;;;;;;;26.73;15.43;;;;;;;;;;5117630;27;20498;-69
2022/10/30 05:51:30;;;;;;;27.52;15.80;;;;;;;;;;5116927;27;20050;-69
2022/10/30 05:53:56;;;;;;;29.25;15.15;;;;;;;;;;5117702;27;20071;-69
2022/10/30 05:56:22;;;;;;;29.88;15.60;;;;;;;;;;5118205;27;20126;-69
2022/10/30 05:58:49;;;;;;;34.42;16.13;;;;;;;;;;5135065;27;20409;-69
2022/10/30 06:01:15;;;;;;;31.17;15.68;;;;;;;;;;5118424;27;20100;-69
2022/10/30 06:03:42;;;;;;;31.58;15.60;;;;;;;;;;5135136;27;20511;-68
2022/10/30 06:06:08;;;;;;;32.88;15.80;;;;;;;;;;5100275;27;20114;-69
2022/10/30 06:08:34;;;;;;;32.85;15.20;;;;;;;;;;5117129;27;20035;-69
2022/10/30 06:11:00;;;;;;;29.25;16.00;;;;;;;;;;5092413;27;20125;-68
2022/10/30 06:13:26;;;;;;;31.90;16.48;;;;;;;;;;5135440;27;20081;-69
2022/10/30 06:15:56;;;;;;;30.45;15.25;;;;;;;;;;5100605;27;20034;-68
2022/10/30 06:18:22;;;;;;;29.67;15.98;;;;;;;;;;5135355;27;20039;-69
2022/10/30 06:20:48;;;;;;;30.90;15.15;;;;;;;;;;5116372;27;20039;-69
2022/10/30 06:23:15;;;;;;;34.55;16.90;;;;;;;;;;5118534;27;20087;-69
2022/10/30 06:25:41;;;;;;;29.70;15.63;;;;;;;;;;5117540;27;20050;-69
2022/10/30 06:28:07;;;;;;;32.33;16.80;;;;;;;;;;5102787;27;20398;-68
2022/10/30 06:30:33;;;;;;;33.25;16.77;;;;;;;;;;5095783;28;20176;-69
2022/10/30 06:33:00;;;;;;;30.90;17.02;;;;;;;;;;5132978;27;20064;-79
2022/10/30 06:35:26;;;;;;;28.45;16.10;;;;;;;;;;5115386;27;20031;-69
2022/10/30 06:37:54;;;;;;;33.90;16.33;;;;;;;;;;5134816;27;20693;-68
2022/10/30 06:40:20;;;;;;;38.47;17.63;;;;;;;;;;5135282;27;20391;-69
2022/10/30 06:42:46;;;;;;;33.55;16.30;;;;;;;;;;5115798;27;20039;-68
2022/10/30 06:45:13;;;;;;;30.90;16.45;;;;;;;;;;5134510;27;20384;-69
2022/10/30 06:47:39;;;;;;;33.35;16.70;;;;;;;;;;5119684;27;20483;-69
2022/10/30 06:50:07;;;;;;;30.90;16.75;;;;;;;;;;5106454;27;20396;-69
2022/10/30 06:52:33;;;;;;;35.00;16.40;;;;;;;;;;5134169;27;20035;-69
2022/10/30 06:54:59;;;;;;;29.25;16.23;;;;;;;;;;5099120;27;20039;-69
2022/10/30 06:57:25;;;;;;;33.83;16.10;;;;;;;;;;5115995;27;20039;-69
2022/10/30 06:59:51;;;;;;;31.63;16.15;;;;;;;;;;5098618;27;20051;-69
2022/10/30 07:02:17;;;;;;;29.90;14.75;;;;;;;;;;5094420;28;20491;-69
2022/10/30 07:04:44;;;;;;;27.77;14.68;;;;;;;;;;5095481;27;20152;-69
2022/10/30 07:07:11;;;;;;;27.40;15.10;;;;;;;;;;5120392;27;20043;-69
2022/10/30 07:09:37;;;;;;;28.80;13.80;;;;;;;;;;5087061;27;20171;-69
2022/10/30 07:12:03;;;;;;;23.42;13.98;;;;;;;;;;5096788;27;20504;-69
2022/10/30 07:14:29;;;;;;;25.88;13.45;;;;;;;;;;5099696;27;20484;-69
2022/10/30 07:16:55;;;;;;;21.65;13.10;;;;;;;;;;5098524;28;20491;-69
2022/10/30 07:19:22;;;;;;;23.70;13.00;;;;;;;;;;5097531;27;20051;-69
2022/10/30 07:21:48;;;;;;;26.80;13.43;;;;;;;;;;5111722;27;20047;-69
2022/10/30 07:24:14;;;;;;;19.85;12.20;;;;;;;;;;5113566;28;20516;-69
2022/10/30 07:26:41;;;;;;;24.92;13.40;;;;;;;;;;5094931;28;20046;-69
2022/10/30 07:29:07;;;;;;;25.73;12.38;;;;;;;;;;5107035;27;20103;-69
2022/10/30 07:31:33;;;;;;;27.50;12.77;;;;;;;;;;5097544;27;20118;-69
2022/10/30 07:33:59;;;;;;;28.05;12.50;;;;;;;;;;5132776;27;20080;-69
2022/10/30 07:36:25;;;;;;;22.75;12.02;;;;;;;;;;5104446;28;20039;-80
2022/10/30 07:38:51;;;;;;;22.38;11.90;;;;;;;;;;5094412;27;20080;-80
2022/10/30 07:41:18;;;;;;;27.15;11.27;;;;;;;;;;5110036;28;20129;-80
2022/10/30 07:43:45;;;;;;;20.25;11.23;;;;;;;;;;5121584;27;20047;-80
2022/10/30 07:46:11;;;;;;;21.05;11.07;;;;;;;;;;5105382;28;20039;-79
2022/10/30 07:48:37;;;;;;;17.92;10.52;;;;;;;;;;5131567;27;20080;-79
2022/10/30 07:51:03;;;;;;;20.33;10.18;;;;;;;;;;5121603;27;20031;-79
2022/10/30 07:53:29;;;;;;;23.70;10.52;;;;;;;;;;5080737;27;20049;-80
2022/10/30 07:55:55;;;;;;;21.50;10.27;;;;;;;;;;5097610;27;20035;-80
2022/10/30 07:58:22;;;;;;;20.25;9.60;;;;;;;;;;5133258;27;20043;-80
2022/10/30 08:00:48;;;;;;;18.88;10.02;;;;;;;;;;5138370;27;20031;-80
2022/10/30 08:03:14;;;;;;;20.58;9.45;;;;;;;;;;5089929;27;20035;-69
2022/10/30 08:05:40;;;;;;;21.13;9.63;;;;;;;;;;5135849;27;20043;-70
2022/10/30 08:08:07;;;;;;;25.70;9.38;;;;;;;;;;5122801;27;20115;-69
2022/10/30 08:10:33;;;;;;;16.52;8.70;;;;;;;;;;5116990;27;20027;-70
2022/10/30 08:12:59;;;;;;;17.13;9.90;;;;;;;;;;5106730;27;20054;-69
2022/10/30 08:15:25;;;;;;;17.90;9.52;;;;;;;;;;5105612;27;20468;-70
2022/10/30 08:17:54;;;;;;;15.85;8.40;;;;;;;;;;5094273;28;20032;-70
2022/10/30 08:20:22;;;;;;;22.95;9.32;;;;;;;;;;5105714;28;20079;-70
2022/10/30 08:22:55;;;;;;;19.33;9.10;;;;;;;;;;5122187;27;20551;-80
2022/10/30 08:25:22;;;;;;;18.52;8.93;;;;;;;;;;5097578;27;20075;-81
2022/10/30 08:27:55;;;;;;;13.93;8.60;;;;;;;;;;5112457;28;20369;-80
2022/10/30 08:30:22;;;;;;;16.30;8.68;;;;;;;;;;5110405;27;20047;-81
2022/10/30 08:32:48;;;;;;;19.77;8.02;;;;;;;;;;5111421;28;20040;-80
2022/10/30 08:35:15;;;;;;;18.15;8.75;;;;;;;;;;5107528;27;20043;-80
2022/10/30 08:37:41;;;;;;;15.25;7.95;;;;;;;;;;5112843;27;20058;-81
2022/10/30 08:40:08;;;;;;;14.65;7.60;;;;;;;;;;5104895;28;20035;-81
2022/10/30 08:42:34;;;;;;;20.17;8.13;;;;;;;;;;5121767;27;20049;-81
2022/10/30 08:45:00;;;;;;;16.55;8.23;;;;;;;;;;5115007;27;20059;-81
2022/10/30 08:47:26;;;;;;;19.40;8.05;;;;;;;;;;5112748;27;20046;-81
2022/10/30 08:49:52;;;;;;;18.75;9.02;;;;;;;;;;5101083;27;20040;-81
2022/10/30 08:52:18;;;;;;;16.58;7.90;;;;;;;;;;5122305;27;20039;-82
2022/10/30 08:54:44;;;;;;;17.55;8.63;;;;;;;;;;5118114;27;20049;-81
2022/10/30 08:57:10;;;;;;;16.75;8.38;;;;;;;;;;5100621;27;20114;-81
2022/10/30 08:59:36;;;;;;;14.52;7.70;;;;;;;;;;5120815;27;20030;-83
2022/10/30 09:02:02;;;;;;;16.00;7.53;;;;;;;;;;5120409;27;20039;-82
2022/10/30 09:04:28;;;;;;;17.30;7.80;;;;;;;;;;5123703;27;20046;-82
2022/10/30 09:06:54;;;;;;;14.60;7.50;;;;;;;;;;5102968;28;20084;-82
2022/10/30 09:09:20;;;;;;;17.27;8.10;;;;;;;;;;5088435;27;20043;-82
2022/10/30 09:11:47;;;;;;;16.73;8.57;;;;;;;;;;5099235;28;20122;-82
2022/10/30 09:14:14;;;;;;;16.88;8.68;;;;;;;;;;5111215;27;20495;-81
2022/10/30 09:16:40;;;;;;;15.77;8.18;;;;;;;;;;5127857;27;20299;-81
2022/10/30 09:19:06;;;;;;;15.85;8.48;;;;;;;;;;5124184;27;20046;-82
2022/10/30 09:21:32;;;;;;;18.58;8.50;;;;;;;;;;5099588;27;20055;-81
2022/10/30 09:23:58;;;;;;;15.95;8.18;;;;;;;;;;5137902;27;20042;-81
2022/10/30 09:26:24;;;;;;;18.38;8.65;;;;;;;;;;5103179;27;20122;-81
2022/10/30 09:28:50;;;;;;;18.80;7.50;;;;;;;;;;5116884;27;20087;-82
2022/10/30 09:31:16;;;;;;;20.77;8.18;;;;;;;;;;5109341;27;20036;-82
2022/10/30 09:33:42;;;;;;;15.90;7.63;;;;;;;;;;5094407;28;20031;-81
2022/10/30 09:36:08;;;;;;;20.50;9.02;;;;;;;;;;5111159;27;20479;-82
2022/10/30 09:38:34;;;;;;;18.50;8.75;;;;;;;;;;5127555;27;20035;-82
2022/10/30 09:41:09;;;;;;;20.67;7.82;;;;;;;;;;5100911;27;20049;-81
2022/10/30 09:43:44;;;;;;;14.02;7.93;;;;;;;;;;5129172;27;20568;-81
2022/10/30 09:46:28;;;;;;;20.92;8.25;;;;;;;;;;5128488;27;20072;-81
2022/10/30 09:49:02;;;;;;;14.55;8.15;;;;;;;;;;5119353;27;20050;-81
2022/10/30 09:51:40;;;;;;;15.13;8.10;;;;;;;;;;5102200;27;20104;-81
2022/10/30 09:54:16;;;;;;;16.98;8.05;;;;;;;;;;5128017;27;20027;-82
2022/10/30 09:56:44;;;;;;;13.45;7.60;;;;;;;;;;5107889;27;20094;-82
2022/10/30 09:59:26;;;;;;;18.33;8.52;;;;;;;;;;5117419;27;20047;-82
2022/10/30 10:01:55;;;;;;;14.88;8.40;;;;;;;;;;5122783;27;20087;-82
2022/10/30 10:04:44;;;;;;;14.68;7.93;;;;;;;;;;5124841;27;20384;-82
2022/10/30 10:07:18;;;;;;;15.88;8.07;;;;;;;;;;5111600;27;20247;-83
2022/10/30 10:09:44;;;;;;;16.35;8.05;;;;;;;;;;5093254;28;20044;-83
2022/10/30 10:12:12;;;;;;;17.13;7.45;;;;;;;;;;5097656;27;20122;-82
2022/10/30 10:14:41;;;;;;;15.00;7.30;;;;;;;;;;5097351;28;20431;-82
2022/10/30 10:17:11;;;;;;;13.13;7.82;;;;;;;;;;5104982;27;20031;-82
2022/10/30 10:20:00;;;;;;;20.25;7.90;;;;;;;;;;5097106;28;20039;-82
2022/10/30 10:22:30;;;;;;;17.73;8.60;;;;;;;;;;5100170;27;20463;-83
2022/10/30 10:24:56;;;;;;;18.23;7.88;;;;;;;;;;5113132;27;20429;-71
2022/10/30 10:27:22;;;;;;;19.70;8.27;;;;;;;;;;5116287;27;20043;-71
2022/10/30 10:29:48;;;;;;;15.18;7.05;;;;;;;;;;5109663;27;20047;-71
2022/10/30 10:32:17;;;;;;;17.58;6.97;;;;;;;;;;5117927;27;20480;-71
2022/10/30 10:34:55;;;;;;;20.80;8.13;;;;;;;;;;5106880;27;20114;-71
2022/10/30 10:37:43;;;;;;;19.63;7.60;;;;;;;;;;5110914;27;20096;-72
2022/10/30 10:40:09;;;;;;;16.90;7.47;;;;;;;;;;5120326;27;20046;-71
2022/10/30 10:42:35;;;;;;;13.52;7.40;;;;;;;;;;5103901;27;20121;-72
2022/10/30 10:45:01;;;;;;;16.55;7.53;;;;;;;;;;5103286;27;20043;-72
2022/10/30 10:47:46;;;;;;;14.70;7.50;;;;;;;;;;5120871;27;20091;-72
2022/10/30 10:50:12;;;;;;;15.48;7.10;;;;;;;;;;5112252;27;20046;-71
2022/10/30 10:52:48;;;;;;;17.30;7.88;;;;;;;;;;5124545;27;20035;-72
2022/10/30 10:55:17;;;;;;;18.25;8.20;;;;;;;;;;5112384;27;20373;-72
2022/10/30 10:57:43;;;;;;;19.42;8.00;;;;;;;;;;5115561;27;20067;-72
2022/10/30 11:00:21;;;;;;;17.50;7.28;;;;;;;;;;5115494;27;20039;-71
2022/10/30 11:03:05;;;;;;;18.92;7.57;;;;;;;;;;5103289;27;20043;-72
2022/10/30 11:05:35;;;;;;;18.48;7.50;;;;;;;;;;5122330;27;20035;-71
2022/10/30 11:08:13;;;;;;;13.25;6.65;;;;;;;;;;5121956;27;20043;-72
2022/10/30 11:10:39;;;;;;;14.40;7.50;;;;;;;;;;5115788;27;20046;-71
2022/10/30 11:13:05;;;;;;;19.77;7.40;;;;;;;;;;5117035;27;20171;-71
2022/10/30 11:15:34;;;;;;;18.52;7.72;;;;;;;;;;5115975;27;20090;-71
2022/10/30 11:18:05;;;;;;;18.50;7.57;;;;;;;;;;5126775;27;20074;-81
2022/10/30 11:20:36;;;;;;;15.20;7.63;;;;;;;;;;5120675;27;20039;-81
2022/10/30 11:23:02;;;;;;;15.80;7.75;;;;;;;;;;5116277;27;20031;-81
2022/10/30 11:25:37;;;;;;;18.85;7.55;;;;;;;;;;5117089;27;20039;-82
2022/10/30 11:28:04;;;;;;;15.60;7.20;;;;;;;;;;5096515;28;20031;-82
2022/10/30 11:30:30;;;;;;;14.30;6.70;;;;;;;;;;5106416;27;20039;-82
2022/10/30 11:32:57;;;;;;;14.95;7.50;;;;;;;;;;5108595;27;20035;-81
2022/10/30 11:35:24;;;;;;;16.27;7.10;;;;;;;;;;5126408;27;20041;-81
2022/10/30 11:37:51;;;;;;;15.48;7.97;;;;;;;;;;5138554;27;20110;-81
2022/10/30 11:40:22;;;;;;;14.60;6.72;;;;;;;;;;5098258;27;20491;-80
2022/10/30 11:42:48;;;;;;;20.63;7.75;;;;;;;;;;5114233;27;20042;-81
2022/10/30 11:45:14;;;;;;;20.45;7.43;;;;;;;;;;5119065;27;20030;-80
2022/10/30 11:47:41;;;;;;;19.15;8.45;;;;;;;;;;5121840;27;21159;-80
2022/10/30 11:50:18;;;;;;;18.98;9.32;;;;;;;;;;5097667;27;20137;-71
2022/10/30 11:52:45;;;;;;;14.57;7.07;;;;;;;;;;5115023;27;20050;-71
2022/10/30 11:55:23;;;;;;;17.70;8.32;;;;;;;;;;5115118;27;20043;-71
2022/10/30 11:57:51;;;;;;;15.93;7.28;;;;;;;;;;5104197;27;20399;-80
2022/10/30 12:00:22;;;;;;;16.30;7.97;;;;;;;;;;5097973;27;20047;-80
2022/10/30 12:02:50;;;;;;;18.02;7.00;;;;;;;;;;5097835;27;20098;-80
2022/10/30 12:05:25;;;;;;;15.48;7.10;;;;;;;;;;5098262;27;20043;-80
2022/10/30 12:07:52;;;;;;;20.40;7.80;;;;;;;;;;5132386;27;20046;-79
2022/10/30 12:10:23;;;;;;;15.35;7.22;;;;;;;;;;5115001;27;20144;-80
2022/10/30 12:12:50;;;;;;;15.23;7.68;;;;;;;;;;5114375;27;20081;-79
2022/10/30 12:15:16;;;;;;;20.58;8.68;;;;;;;;;;5108324;27;20035;-79
2022/10/30 12:17:50;;;;;;;16.05;8.57;;;;;;;;;;5116659;27;20036;-79
2022/10/30 12:20:16;;;;;;;20.43;7.70;;;;;;;;;;5115461;27;20392;-70
2022/10/30 12:22:42;;;;;;;23.80;8.90;;;;;;;;;;5077770;28;20277;-70
2022/10/30 12:25:22;;;;;;;18.35;8.52;;;;;;;;;;5106677;27;20039;-70
2022/10/30 12:27:48;;;;;;;21.45;9.38;;;;;;;;;;5121517;28;20039;-70
2022/10/30 12:30:18;;;;;;;19.50;8.75;;;;;;;;;;5114576;28;20058;-70
2022/10/30 12:32:50;;;;;;;17.52;8.43;;;;;;;;;;5126886;27;20125;-70
2022/10/30 12:35:30;;;;;;;19.20;8.30;;;;;;;;;;5115707;27;20042;-70
2022/10/30 12:37:58;;;;;;;19.60;8.30;;;;;;;;;;5117793;27;20077;-70
2022/10/30 12:40:28;;;;;;;15.43;8.70;;;;;;;;;;5097852;28;20510;-70
2022/10/30 12:42:58;;;;;;;22.80;9.13;;;;;;;;;;5118263;28;20506;-70
2022/10/30 12:45:29;;;;;;;19.88;8.95;;;;;;;;;;5113298;27;20047;-70
2022/10/30 12:47:55;;;;;;;22.70;8.93;;;;;;;;;;5104634;27;20043;-70
2022/10/30 12:50:21;;;;;;;21.50;9.23;;;;;;;;;;5144529;27;20038;-70
2022/10/30 12:52:55;;;;;;;19.92;9.38;;;;;;;;;;5114994;28;20478;-70
2022/10/30 12:55:27;;;;;;;19.90;9.90;;;;;;;;;;5112719;27;20568;-71
2022/10/30 12:58:05;;;;;;;16.92;8.63;;;;;;;;;;5109083;28;20510;-73
2022/10/30 13:00:36;;;;;;;19.35;8.40;;;;;;;;;;5109828;27;20380;-72
2022/10/30 13:03:14;;;;;;;21.67;8.98;;;;;;;;;;5104667;27;20046;-72
2022/10/30 13:05:53;;;;;;;20.02;9.57;;;;;;;;;;5111398;27;20038;-72
2022/10/30 13:08:19;;;;;;;22.55;9.20;;;;;;;;;;5095810;28;20035;-71
2022/10/30 13:10:47;;;;;;;21.58;8.85;;;;;;;;;;5112106;27;20077;-71
2022/10/30 13:13:25;;;;;;;17.20;8.68;;;;;;;;;;5111104;27;20495;-72
2022/10/30 13:15:53;;;;;;;19.17;9.05;;;;;;;;;;5114865;27;20392;-78
2022/10/30 13:18:23;;;;;;;20.75;10.02;;;;;;;;;;5113745;27;20078;-79
2022/10/30 13:20:59;;;;;;;22.77;9.48;;;;;;;;;;5118445;27;20471;-79
2022/10/30 13:23:31;;;;;;;21.73;9.07;;;;;;;;;;5100682;27;20035;-79
2022/10/30 13:26:00;;;;;;;17.65;8.52;;;;;;;;;;5107759;27;20043;-78
2022/10/30 13:28:27;;;;;;;19.23;8.25;;;;;;;;;;5102068;27;20035;-79
2022/10/30 13:30:56;;;;;;;22.42;8.88;;;;;;;;;;5105441;27;20447;-78
2022/10/30 13:33:29;;;;;;;22.25;8.23;;;;;;;;;;5105268;27;20036;-79
2022/10/30 13:35:58;;;;;;;17.25;7.78;;;;;;;;;;5109738;27;20031;-79
2022/10/30 13:38:24;;;;;;;20.27;7.20;;;;;;;;;;5115074;27;20175;-79
2022/10/30 13:40:53;;;;;;;17.63;7.15;;;;;;;;;;5110590;27;20046;-79
2022/10/30 13:43:31;;;;;;;17.25;7.70;;;;;;;;;;5107159;27;20042;-80
2022/10/30 13:45:57;;;;;;;15.38;7.00;;;;;;;;;;5094763;28;20092;-80
2022/10/30 13:48:30;;;;;;;17.25;7.05;;;;;;;;;;5086943;27;20031;-79
2022/10/30 13:51:11;;;;;;;18.63;8.10;;;;;;;;;;5107757;27;20039;-73
2022/10/30 13:53:40;;;;;;;18.02;7.82;;;;;;;;;;5114541;27;20070;-72
2022/10/30 13:56:15;;;;;;;14.85;7.25;;;;;;;;;;5114148;27;20402;-72
2022/10/30 13:58:41;;;;;;;19.30;8.50;;;;;;;;;;5100452;27;20038;-79
2022/10/30 14:01:14;;;;;;;15.82;8.57;;;;;;;;;;5117764;27;20038;-79
2022/10/30 14:03:48;;;;;;;21.02;9.20;;;;;;;;;;5128799;27;20042;-72
2022/10/30 14:06:20;;;;;;;18.55;9.35;;;;;;;;;;5100578;27;20043;-72
2022/10/30 14:08:58;;;;;;;19.65;9.10;;;;;;;;;;5135396;27;20043;-72
2022/10/30 14:11:25;;;;;;;18.95;8.73;;;;;;;;;;5116926;27;20039;-72
2022/10/30 14:13:53;;;;;;;19.52;8.70;;;;;;;;;;5121452;27;20540;-79
2022/10/30 14:16:38;;;;;;;17.00;8.43;;;;;;;;;;5099567;27;20062;-79
2022/10/30 14:19:05;;;;;;;19.30;8.35;;;;;;;;;;5110822;27;20038;-79
2022/10/30 14:21:38;;;;;;;18.02;8.70;;;;;;;;;;5111295;27;20050;-79
2022/10/30 14:24:10;;;;;;;20.58;8.57;;;;;;;;;;5120846;27;20043;-72
2022/10/30 14:26:36;;;;;;;19.42;8.85;;;;;;;;;;5102061;27;20043;-72
2022/10/30 14:29:22;;;;;;;15.70;8.23;;;;;;;;;;5119451;27;20092;-72
2022/10/30 14:31:48;;;;;;;;;;;;;;;;;;5114576;27;20039;-72